createdAt,value
2023-03-15T00:00:10.500Z,4.00
2023-03-15T00:02:39.328Z,3.90
2023-03-15T00:05:08.887Z,3.90
2023-03-15T00:07:38.533Z,3.80
2023-03-15T00:10:08.280Z,3.80
2023-03-15T00:12:36.637Z,3.80
2023-03-15T00:15:05.351Z,3.80
2023-03-15T00:17:34.904Z,3.80
2023-03-15T00:20:04.259Z,3.90
2023-03-15T00:22:32.477Z,3.90
2023-03-15T00:25:02.528Z,3.90
2023-03-15T00:27:30.799Z,4.00
2023-03-15T00:29:59.098Z,4.00
2023-03-15T00:32:27.591Z,3.70
2023-03-15T00:34:55.852Z,3.60
2023-03-15T00:37:25.734Z,3.60
2023-03-15T00:39:56.036Z,3.60
2023-03-15T00:42:27.686Z,3.60
2023-03-15T00:44:56.832Z,3.70
2023-03-15T00:47:25.709Z,3.70
2023-03-15T00:49:54.051Z,3.70
2023-03-15T00:52:23.043Z,3.80
2023-03-15T00:54:55.104Z,3.80
2023-03-15T00:57:23.774Z,3.80
2023-03-15T00:59:53.432Z,3.80
2023-03-15T01:02:22.370Z,3.70
2023-03-15T01:04:51.379Z,3.80
2023-03-15T01:07:19.793Z,3.80
2023-03-15T01:09:48.723Z,3.80
2023-03-15T01:12:17.080Z,3.80
2023-03-15T01:14:45.457Z,3.80
2023-03-15T01:17:15.200Z,3.80
2023-03-15T01:19:43.613Z,3.70
2023-03-15T01:22:11.800Z,3.70
2023-03-15T01:24:40.169Z,3.60
2023-03-15T01:27:08.539Z,3.60
2023-03-15T01:29:36.901Z,3.60
2023-03-15T01:32:05.952Z,3.60
2023-03-15T01:34:35.841Z,3.60
2023-03-15T01:37:04.320Z,3.70
2023-03-15T01:39:32.713Z,3.70
2023-03-15T01:42:01.339Z,3.70
2023-03-15T01:44:50.698Z,3.70
2023-03-15T01:47:19.049Z,3.70
2023-03-15T01:49:55.312Z,3.70
2023-03-15T01:52:26.782Z,3.70
2023-03-15T01:54:58.294Z,3.70
2023-03-15T01:57:31.179Z,3.70
2023-03-15T02:00:07.406Z,3.70
2023-03-15T02:02:36.093Z,3.70
2023-03-15T02:05:11.530Z,3.60
2023-03-15T02:07:40.544Z,3.70
2023-03-15T02:10:12.407Z,3.70
2023-03-15T02:12:47.935Z,3.70
2023-03-15T02:15:16.901Z,3.70
2023-03-15T02:17:47.489Z,3.70
2023-03-15T02:20:29.167Z,3.80
2023-03-15T02:23:00.455Z,3.80
2023-03-15T02:25:39.916Z,3.80
2023-03-15T02:28:12.709Z,3.80
2023-03-15T02:30:41.506Z,3.80
2023-03-15T02:33:17.165Z,3.80
2023-03-15T02:35:45.658Z,3.70
2023-03-15T02:38:14.205Z,3.70
2023-03-15T02:40:43.312Z,3.70
2023-03-15T02:43:17.270Z,3.70
2023-03-15T02:45:47.333Z,3.80
2023-03-15T02:48:15.958Z,3.80
2023-03-15T02:50:44.138Z,3.80
2023-03-15T02:53:13.035Z,3.80
2023-03-15T02:55:41.297Z,3.90
2023-03-15T02:58:09.514Z,3.90
2023-03-15T03:00:39.532Z,3.90
2023-03-15T03:03:09.001Z,3.90
2023-03-15T03:05:37.885Z,3.80
2023-03-15T03:08:06.665Z,3.90
2023-03-15T03:10:35.006Z,3.90
2023-03-15T03:13:03.178Z,3.90
2023-03-15T03:15:31.755Z,3.90
2023-03-15T03:18:01.605Z,3.90
2023-03-15T03:20:29.979Z,3.90
2023-03-15T03:22:58.234Z,4.00
2023-03-15T03:25:27.502Z,4.00
2023-03-15T03:27:57.514Z,4.00
2023-03-15T03:30:25.862Z,4.00
2023-03-15T03:32:54.739Z,4.00
2023-03-15T03:35:24.789Z,4.10
2023-03-15T03:37:54.100Z,4.10
2023-03-15T03:40:22.670Z,4.10
2023-03-15T03:42:51.032Z,4.10
2023-03-15T03:45:19.344Z,4.10
2023-03-15T03:47:48.088Z,4.20
2023-03-15T03:50:16.386Z,4.10
2023-03-15T03:52:46.246Z,4.10
2023-03-15T03:55:14.820Z,4.20
2023-03-15T03:57:44.171Z,4.20
2023-03-15T04:00:15.963Z,4.20
2023-03-15T04:02:44.296Z,4.20
2023-03-15T04:05:13.228Z,4.10
2023-03-15T04:07:41.814Z,4.10
2023-03-15T04:10:14.987Z,4.10
2023-03-15T04:12:43.680Z,4.00
2023-03-15T04:15:12.859Z,4.00
2023-03-15T04:17:41.306Z,4.00
2023-03-15T04:20:13.065Z,4.00
2023-03-15T04:22:41.465Z,4.00
2023-03-15T04:25:11.780Z,4.00
2023-03-15T04:27:39.991Z,3.90
2023-03-15T04:30:09.427Z,4.00
2023-03-15T04:32:37.865Z,4.00
2023-03-15T04:35:06.800Z,4.00
2023-03-15T04:37:34.978Z,4.00
2023-03-15T04:40:05.173Z,4.00
2023-03-15T04:42:34.972Z,3.90
2023-03-15T04:45:04.710Z,3.90
2023-03-15T04:47:32.913Z,3.90
2023-03-15T04:50:01.140Z,3.90
2023-03-15T04:52:29.421Z,3.90
2023-03-15T04:54:57.611Z,3.90
2023-03-15T04:57:26.052Z,3.90
2023-03-15T04:59:57.079Z,3.90
2023-03-15T05:02:26.112Z,3.90
2023-03-15T05:04:54.379Z,3.80
2023-03-15T05:07:22.893Z,3.80
2023-03-15T05:09:51.247Z,3.80
2023-03-15T05:12:19.680Z,3.70
2023-03-15T05:14:48.177Z,3.60
2023-03-15T05:17:17.865Z,3.50
2023-03-15T05:19:46.350Z,3.40
2023-03-15T05:22:14.605Z,3.40
2023-03-15T05:24:43.869Z,3.30
2023-03-15T05:27:14.069Z,3.30
2023-03-15T05:29:42.410Z,3.30
2023-03-15T05:32:11.041Z,3.30
2023-03-15T05:34:40.704Z,3.20
2023-03-15T05:37:09.310Z,3.10
2023-03-15T05:39:37.571Z,3.10
2023-03-15T05:42:06.354Z,3.10
2023-03-15T05:44:34.728Z,3.00
2023-03-15T05:47:02.991Z,3.00
2023-03-15T05:49:31.421Z,3.00
2023-03-15T05:52:01.565Z,3.00
2023-03-15T05:54:30.778Z,2.90
2023-03-15T05:56:59.042Z,2.90
2023-03-15T05:59:27.561Z,2.90
2023-03-15T06:01:55.996Z,2.90
2023-03-15T06:04:24.823Z,2.90
2023-03-15T06:06:53.835Z,2.80
2023-03-15T06:09:23.467Z,2.80
2023-03-15T06:11:52.447Z,2.80
2023-03-15T06:14:20.950Z,2.80
2023-03-15T06:16:49.205Z,2.70
2023-03-15T06:19:17.763Z,2.70
2023-03-15T06:21:46.334Z,2.70
2023-03-15T06:24:14.737Z,2.70
2023-03-15T06:26:44.473Z,2.70
2023-03-15T06:29:12.719Z,2.60
2023-03-15T06:31:41.354Z,2.60
2023-03-15T06:34:09.992Z,2.60
2023-03-15T06:36:38.792Z,2.70
2023-03-15T06:39:07.054Z,2.70
2023-03-15T06:41:35.434Z,2.80
2023-03-15T06:44:05.303Z,2.90
2023-03-15T06:46:33.943Z,2.90
2023-03-15T06:49:03.516Z,2.90
2023-03-15T06:51:33.256Z,3.00
2023-03-15T06:54:01.456Z,3.10
2023-03-15T06:56:29.906Z,3.30
2023-03-15T06:58:58.307Z,3.50
2023-03-15T07:01:27.990Z,3.60
2023-03-15T07:03:56.659Z,3.70
2023-03-15T07:06:25.080Z,3.80
2023-03-15T07:08:53.353Z,4.00
2023-03-15T07:11:21.781Z,4.20
2023-03-15T07:13:50.622Z,4.50
2023-03-15T07:16:18.804Z,4.70
2023-03-15T07:18:48.590Z,5.10
2023-03-15T07:21:16.874Z,5.50
2023-03-15T07:23:45.449Z,5.50
2023-03-15T07:26:13.711Z,5.60
2023-03-15T07:28:43.715Z,5.80
2023-03-15T07:31:13.046Z,6.20
2023-03-15T07:33:42.401Z,6.50
2023-03-15T07:36:12.170Z,6.40
2023-03-15T07:38:42.080Z,6.30
2023-03-15T07:41:11.417Z,6.40
2023-03-15T07:43:39.761Z,6.40
2023-03-15T07:46:08.214Z,6.40
2023-03-15T07:48:36.563Z,6.50
2023-03-15T07:51:04.992Z,6.50
2023-03-15T07:53:34.673Z,6.50
2023-03-15T07:56:03.058Z,6.50
2023-03-15T07:58:31.560Z,6.70
2023-03-15T08:01:00.631Z,6.80
2023-03-15T08:03:29.206Z,6.70
2023-03-15T08:05:57.799Z,6.80
2023-03-15T08:08:26.728Z,6.80
2023-03-15T08:10:57.039Z,6.90
2023-03-15T08:13:25.540Z,6.90
2023-03-15T08:15:53.774Z,6.90
2023-03-15T08:18:22.009Z,7.10
2023-03-15T08:20:50.637Z,7.20
2023-03-15T08:23:19.288Z,7.20
2023-03-15T08:25:47.742Z,7.20
2023-03-15T08:28:17.714Z,7.20
2023-03-15T08:30:45.925Z,7.30
2023-03-15T08:33:14.254Z,7.30
2023-03-15T08:35:42.905Z,7.20
2023-03-15T08:38:11.293Z,7.60
2023-03-15T08:40:40.812Z,8.10
2023-03-15T08:43:08.985Z,8.50
2023-03-15T08:45:56.666Z,9.10
2023-03-15T08:48:27.303Z,9.70
2023-03-15T08:50:55.595Z,10.30
2023-03-15T08:53:23.876Z,10.90
2023-03-15T08:55:52.174Z,11.80
2023-03-15T08:58:20.424Z,12.60
2023-03-15T09:00:52.016Z,13.40
2023-03-15T09:03:20.785Z,13.70
2023-03-15T09:05:49.133Z,14.40
2023-03-15T09:08:21.257Z,14.60
2023-03-15T09:10:49.889Z,14.90
2023-03-15T09:13:18.245Z,15.20
2023-03-15T09:15:46.569Z,15.70
2023-03-15T09:18:16.159Z,16.00
2023-03-15T09:20:44.561Z,16.90
2023-03-15T09:23:12.808Z,17.10
2023-03-15T09:25:41.355Z,17.90
2023-03-15T09:28:12.338Z,18.20
2023-03-15T09:30:42.704Z,18.80
2023-03-15T09:33:14.766Z,19.50
2023-03-15T09:35:44.513Z,19.60
2023-03-15T09:38:13.008Z,19.30
2023-03-15T09:40:45.117Z,19.00
2023-03-15T09:43:41.447Z,19.50
2023-03-15T09:46:17.372Z,19.80
2023-03-15T09:48:51.775Z,19.30
2023-03-15T09:51:38.495Z,18.60
2023-03-15T09:54:12.485Z,17.50
2023-03-15T09:56:45.795Z,17.30
2023-03-15T09:59:17.741Z,17.50
2023-03-15T10:01:46.948Z,17.40
2023-03-15T10:04:26.013Z,16.40
2023-03-15T10:06:57.766Z,15.10
2023-03-15T10:09:29.698Z,15.00
2023-03-15T10:12:05.224Z,14.90
2023-03-15T10:15:00.814Z,14.80
2023-03-15T10:17:37.533Z,14.50
2023-03-15T10:20:12.647Z,14.30
2023-03-15T10:22:50.385Z,13.90
2023-03-15T10:25:23.584Z,13.70
2023-03-15T10:27:55.348Z,13.60
2023-03-15T10:30:25.764Z,13.50
2023-03-15T10:32:59.625Z,13.30
2023-03-15T10:35:28.025Z,13.30
2023-03-15T10:37:57.868Z,13.30
2023-03-15T10:40:44.404Z,13.10
2023-03-15T10:43:20.503Z,12.90
2023-03-15T10:45:59.096Z,12.80
2023-03-15T10:48:28.181Z,12.90
2023-03-15T10:50:59.168Z,12.90
2023-03-15T10:53:28.993Z,12.90
2023-03-15T10:56:02.569Z,12.80
2023-03-15T10:58:40.780Z,12.90
2023-03-15T11:01:12.600Z,13.10
2023-03-15T11:03:44.755Z,13.90
2023-03-15T11:06:22.780Z,14.40
2023-03-15T11:08:52.492Z,14.70
2023-03-15T11:11:21.526Z,15.30
2023-03-15T11:14:01.088Z,15.30
2023-03-15T11:16:36.677Z,15.10
2023-03-15T11:19:13.028Z,15.10
2023-03-15T11:21:42.611Z,15.30
2023-03-15T11:24:23.786Z,15.30
2023-03-15T11:26:55.216Z,15.90
2023-03-15T11:29:27.167Z,16.40
2023-03-15T11:31:57.446Z,17.20
2023-03-15T11:34:43.710Z,17.00
2023-03-15T11:37:19.158Z,16.50
2023-03-15T11:39:58.780Z,17.10
2023-03-15T11:42:35.038Z,18.00
2023-03-15T11:45:06.738Z,19.00
2023-03-15T11:47:42.915Z,18.90
2023-03-15T11:50:15.625Z,18.40
2023-03-15T11:52:48.612Z,18.00
2023-03-15T11:55:30.361Z,17.80
2023-03-15T11:57:59.109Z,18.90
2023-03-15T12:00:52.218Z,19.50
2023-03-15T12:03:42.537Z,20.30
2023-03-15T12:06:36.205Z,20.30
2023-03-15T12:09:20.562Z,20.80
2023-03-15T12:11:50.519Z,21.00
2023-03-15T12:14:30.776Z,21.30
2023-03-15T12:17:39.219Z,20.10
2023-03-15T12:20:22.836Z,20.20
2023-03-15T12:22:54.112Z,20.80
2023-03-15T12:25:45.432Z,21.50
2023-03-15T12:28:24.754Z,22.30
2023-03-15T12:30:59.524Z,22.50
2023-03-15T12:33:29.432Z,22.80
2023-03-15T12:36:02.123Z,22.60
2023-03-15T12:38:38.347Z,22.20
2023-03-15T12:41:10.495Z,22.40
2023-03-15T12:43:53.485Z,21.50
2023-03-15T12:46:59.113Z,21.20
2023-03-15T12:49:35.123Z,21.50
2023-03-15T12:52:05.515Z,21.00
2023-03-15T12:54:43.157Z,20.00
2023-03-15T12:57:13.690Z,20.70
2023-03-15T12:59:48.394Z,21.20
2023-03-15T13:02:42.135Z,21.20
2023-03-15T13:05:21.338Z,21.40
2023-03-15T13:07:56.484Z,21.60
2023-03-15T13:10:55.222Z,21.70
2023-03-15T13:13:35.362Z,21.60
2023-03-15T13:16:18.738Z,20.50
2023-03-15T13:18:56.255Z,20.10
2023-03-15T13:21:29.700Z,19.80
2023-03-15T13:24:00.364Z,20.10
2023-03-15T13:26:52.433Z,20.30
2023-03-15T13:29:27.888Z,20.70
2023-03-15T13:32:08.196Z,19.90
2023-03-15T13:34:37.133Z,19.90
2023-03-15T13:37:05.458Z,19.60
2023-03-15T13:39:35.656Z,20.00
2023-03-15T13:42:06.028Z,19.30
2023-03-15T13:44:35.076Z,19.00
2023-03-15T13:47:04.806Z,18.50
2023-03-15T13:49:34.377Z,18.30
2023-03-15T13:52:05.692Z,18.20
2023-03-15T13:54:35.262Z,18.30
2023-03-15T13:57:11.261Z,18.20
2023-03-15T13:59:44.022Z,18.10
2023-03-15T14:02:18.666Z,18.30
2023-03-15T14:04:53.847Z,18.80
2023-03-15T14:07:29.606Z,19.10
2023-03-15T14:10:24.317Z,18.80
2023-03-15T14:12:53.824Z,18.60
2023-03-15T14:15:25.509Z,18.40
2023-03-15T14:18:03.157Z,18.40
2023-03-15T14:20:41.682Z,17.60
2023-03-15T14:23:13.169Z,18.30
2023-03-15T14:28:16.500Z,17.20
2023-03-15T14:30:52.004Z,17.60
2023-03-15T14:35:54.355Z,16.30
2023-03-15T14:38:24.254Z,16.50
2023-03-15T14:40:53.821Z,17.20
2023-03-15T14:43:24.413Z,17.40
2023-03-15T14:45:52.653Z,17.40
2023-03-15T14:48:27.718Z,16.90
2023-03-15T14:50:58.486Z,17.20
2023-03-15T14:53:33.215Z,16.60
2023-03-15T14:56:01.456Z,16.70
2023-03-15T14:58:29.628Z,16.50
2023-03-15T15:00:59.095Z,16.70
2023-03-15T15:06:06.480Z,17.00
2023-03-15T15:08:38.568Z,16.60
2023-03-15T15:11:08.642Z,16.60
2023-03-15T15:13:37.698Z,16.50
2023-03-15T15:18:38.042Z,16.20
2023-03-15T15:21:14.879Z,16.40
2023-03-15T15:23:57.450Z,15.90
2023-03-15T15:26:29.138Z,15.80
2023-03-15T15:28:58.318Z,15.90
2023-03-15T15:31:34.359Z,15.50
2023-03-15T15:34:03.125Z,15.10
2023-03-15T15:36:35.606Z,15.10
2023-03-15T15:39:07.100Z,15.00
2023-03-15T15:41:36.406Z,14.90
2023-03-15T15:44:05.061Z,14.80
2023-03-15T15:46:34.770Z,14.00
2023-03-15T15:49:05.862Z,14.10
2023-03-15T15:51:38.768Z,14.20
2023-03-15T15:54:07.414Z,14.10
2023-03-15T15:56:40.248Z,14.20
2023-03-15T15:59:14.118Z,13.60
2023-03-15T16:01:59.139Z,13.30
2023-03-15T16:04:28.918Z,13.60
2023-03-15T16:07:02.067Z,13.50
2023-03-15T16:09:33.360Z,13.20
2023-03-15T16:12:01.738Z,13.70
2023-03-15T16:14:29.999Z,13.50
2023-03-15T16:16:58.156Z,13.10
2023-03-15T16:21:55.749Z,12.90
2023-03-15T16:24:30.289Z,12.80
2023-03-15T16:27:02.566Z,12.50
2023-03-15T16:29:37.940Z,12.40
2023-03-15T16:32:16.954Z,12.20
2023-03-15T16:34:47.485Z,12.00
2023-03-15T16:37:18.460Z,11.70
2023-03-15T16:39:50.331Z,11.90
2023-03-15T16:42:19.953Z,11.90
2023-03-15T16:44:48.665Z,11.90
2023-03-15T16:47:17.181Z,11.90
2023-03-15T16:49:45.877Z,11.80
2023-03-15T16:52:16.447Z,12.00
2023-03-15T16:54:48.840Z,11.90
2023-03-15T16:57:21.824Z,11.80
2023-03-15T16:59:50.784Z,11.80
2023-03-15T17:04:49.314Z,11.70
2023-03-15T17:07:18.618Z,11.50
2023-03-15T17:09:50.530Z,11.30
2023-03-15T17:12:22.896Z,11.20
2023-03-15T17:14:51.962Z,11.10
2023-03-15T17:17:21.081Z,11.10
2023-03-15T17:19:49.446Z,11.10
2023-03-15T17:22:19.652Z,11.10
2023-03-15T17:24:50.037Z,11.00
2023-03-15T17:27:25.030Z,11.10
2023-03-15T17:32:23.070Z,10.90
2023-03-15T17:34:52.301Z,10.80
2023-03-15T17:37:21.340Z,10.70
2023-03-15T17:39:51.728Z,10.70
2023-03-15T17:42:20.717Z,10.60
2023-03-15T17:44:49.508Z,10.50
2023-03-15T17:49:48.461Z,10.20
2023-03-15T17:54:47.401Z,10.10
2023-03-15T17:59:48.233Z,10.10
2023-03-15T18:02:17.676Z,10.10
2023-03-15T18:04:47.156Z,10.10
2023-03-15T18:07:16.104Z,10.10
